createdAt,value
2022-10-05T01:58:45.417Z,96837.13
2022-10-05T02:01:18.385Z,96828.84
2022-10-05T02:03:57.200Z,96825.13
2022-10-05T02:06:28.038Z,96823.88
2022-10-05T02:09:04.947Z,96822.03
2022-10-05T02:11:33.358Z,96810.22
2022-10-05T02:14:07.556Z,96819.09
2022-10-05T02:16:46.939Z,96818.50
2022-10-05T02:19:34.350Z,96809.72
2022-10-05T02:22:09.098Z,96814.28
2022-10-05T02:24:44.607Z,96814.03
2022-10-05T02:27:17.493Z,96813.47
2022-10-05T02:29:48.303Z,96811.88
2022-10-05T02:32:24.019Z,96808.13
2022-10-05T02:34:50.919Z,96814.09
2022-10-05T02:37:38.847Z,96808.41
2022-10-05T02:40:05.406Z,96800.09
2022-10-05T02:43:04.361Z,96801.19
2022-10-05T02:45:33.706Z,96803.34
2022-10-05T02:48:23.210Z,96805.25
2022-10-05T02:50:59.152Z,96802.28
2022-10-05T02:54:03.934Z,96800.38
2022-10-05T02:56:42.072Z,96798.81
2022-10-05T02:59:26.432Z,96802.00
2022-10-05T03:02:00.573Z,96804.75
2022-10-05T03:04:35.927Z,96802.84
2022-10-05T03:07:07.836Z,96798.56
2022-10-05T03:09:42.381Z,96797.50
2022-10-05T03:12:30.932Z,96802.84
2022-10-05T03:15:11.134Z,96799.63
2022-10-05T03:18:07.350Z,96803.38
2022-10-05T03:20:44.207Z,96796.94
2022-10-05T03:23:25.190Z,96798.03
2022-10-05T03:25:54.483Z,96802.31
2022-10-05T03:28:31.989Z,96803.91
2022-10-05T03:31:04.879Z,96800.97
2022-10-05T03:33:34.395Z,96805.00
2022-10-05T03:36:25.187Z,96813.03
2022-10-05T03:39:10.711Z,96807.66
2022-10-05T03:41:42.712Z,96810.38
2022-10-05T03:44:25.278Z,96806.34
2022-10-05T03:46:54.798Z,96811.44
2022-10-05T03:49:46.076Z,96815.19
2022-10-05T03:52:12.672Z,96823.25
2022-10-05T03:54:45.859Z,96823.25
2022-10-05T03:57:23.615Z,96826.41
2022-10-05T04:00:04.895Z,96830.19
2022-10-05T04:02:37.119Z,96824.31
2022-10-05T04:05:19.147Z,96829.69
2022-10-05T04:07:52.228Z,96840.13
2022-10-05T04:10:43.190Z,96824.88
2022-10-05T04:13:21.564Z,96835.06
2022-10-05T04:16:12.449Z,96835.31
2022-10-05T04:18:56.438Z,96839.09
2022-10-05T04:21:31.388Z,96837.75
2022-10-05T04:24:14.503Z,96838.28
2022-10-05T04:26:50.728Z,96836.16
2022-10-05T04:29:41.447Z,96835.84
2022-10-05T04:32:10.731Z,96834.50
2022-10-05T04:34:40.021Z,96842.00
2022-10-05T04:37:18.239Z,96845.22
2022-10-05T04:40:01.568Z,96841.22
2022-10-05T04:42:40.275Z,96834.53
2022-10-05T04:45:39.354Z,96836.13
2022-10-05T04:48:22.550Z,96838.25
2022-10-05T04:51:11.971Z,96837.19
2022-10-05T04:54:05.171Z,96836.09
2022-10-05T04:56:46.280Z,96839.31
2022-10-05T04:59:34.587Z,96840.38
2022-10-05T05:02:23.040Z,96833.44
2022-10-05T05:05:01.557Z,96838.25
2022-10-05T05:07:33.899Z,96844.63
2022-10-05T05:10:19.652Z,96844.63
2022-10-05T05:12:49.018Z,96840.06
2022-10-05T05:15:18.195Z,96841.38
2022-10-05T05:18:06.070Z,96846.53
2022-10-05T05:20:47.891Z,96849.16
2022-10-05T05:23:26.658Z,96856.44
2022-10-05T05:26:19.251Z,96851.91
2022-10-05T05:29:23.035Z,96862.28
2022-10-05T05:31:54.014Z,96866.53
2022-10-05T05:34:39.348Z,96871.97
2022-10-05T05:37:32.184Z,96868.16
2022-10-05T05:40:16.480Z,96872.72
2022-10-05T05:43:20.621Z,96876.22
2022-10-05T05:46:02.060Z,96877.84
2022-10-05T05:48:41.344Z,96873.31
2022-10-05T05:51:14.210Z,96878.88
2022-10-05T05:53:44.509Z,96866.91
2022-10-05T05:56:17.662Z,96871.19
2022-10-05T05:58:54.767Z,96872.03
2022-10-05T06:01:34.011Z,96874.13
2022-10-05T06:04:13.231Z,96883.78
2022-10-05T06:06:44.819Z,96874.13
2022-10-05T06:09:24.662Z,96876.84
2022-10-05T06:11:53.531Z,96880.06
2022-10-05T06:14:44.689Z,96888.66
2022-10-05T06:17:18.403Z,96889.72
2022-10-05T06:19:47.126Z,96888.63
2022-10-05T06:22:22.432Z,96892.13
2022-10-05T06:25:12.953Z,96887.03
2022-10-05T06:28:01.759Z,96888.91
2022-10-05T06:30:58.578Z,96885.97
2022-10-05T06:33:52.325Z,96892.91
2022-10-05T06:36:37.575Z,96892.25
2022-10-05T06:39:22.351Z,96905.66
2022-10-05T06:42:04.075Z,96908.34
2022-10-05T06:44:39.504Z,96908.91
2022-10-05T06:47:21.910Z,96902.75
2022-10-05T06:50:13.368Z,96899.63
2022-10-05T06:52:57.890Z,96900.81
2022-10-05T06:55:30.791Z,96897.50
2022-10-05T06:58:19.187Z,96900.25
2022-10-05T07:01:20.136Z,96900.88
2022-10-05T07:03:58.644Z,96900.56
2022-10-05T07:06:57.524Z,96898.84
2022-10-05T07:09:41.232Z,96895.44
2022-10-05T07:12:22.859Z,96891.75
2022-10-05T07:14:56.776Z,96893.88
2022-10-05T07:17:23.307Z,96893.63
2022-10-05T07:20:16.377Z,96898.44
2022-10-05T07:22:54.964Z,96889.72
2022-10-05T07:25:30.623Z,96887.38
2022-10-05T07:28:05.529Z,96891.88
2022-10-05T07:30:45.814Z,96890.06
2022-10-05T07:33:37.758Z,96895.00
2022-10-05T07:36:31.150Z,96891.22
2022-10-05T07:39:19.814Z,96886.88
2022-10-05T07:41:56.979Z,96882.06
2022-10-05T07:44:33.360Z,96884.66
2022-10-05T07:47:15.742Z,96875.47
2022-10-05T07:49:59.660Z,96874.00
2022-10-05T07:52:32.385Z,96868.63
2022-10-05T07:55:19.558Z,96861.19
2022-10-05T07:57:57.950Z,96864.06
2022-10-05T08:00:27.593Z,96860.16
2022-10-05T08:03:10.162Z,96856.16
2022-10-05T08:05:41.813Z,96855.25
2022-10-05T08:08:13.180Z,96847.00
2022-10-05T08:10:50.050Z,96838.88
2022-10-05T08:13:33.572Z,96836.84
2022-10-05T08:16:04.592Z,96841.91
2022-10-05T08:18:56.802Z,96840.44
2022-10-05T08:21:31.010Z,96835.84
2022-10-05T08:24:30.751Z,96834.59
2022-10-05T08:27:32.310Z,96832.19
2022-10-05T08:30:01.940Z,96844.00
2022-10-05T08:32:35.651Z,96840.34
2022-10-05T08:35:37.988Z,96827.66
2022-10-05T08:38:32.730Z,96827.47
2022-10-05T08:41:33.157Z,96836.06
2022-10-05T08:44:07.797Z,96828.78
2022-10-05T08:47:11.767Z,96831.41
2022-10-05T08:49:47.932Z,96833.22
2022-10-05T08:52:43.731Z,96831.66
2022-10-05T08:55:10.276Z,96838.50
2022-10-05T08:57:48.683Z,96836.19
2022-10-05T09:00:18.398Z,96834.84
2022-10-05T09:03:23.455Z,96831.50
2022-10-05T09:06:10.702Z,96835.44
2022-10-05T09:08:55.618Z,96837.31
2022-10-05T09:11:37.259Z,96841.38
2022-10-05T09:14:56.426Z,96837.66
2022-10-05T09:17:44.717Z,96838.63
2022-10-05T09:20:15.157Z,96844.56
2022-10-05T09:23:25.126Z,96845.97
2022-10-05T09:26:00.682Z,96836.66
2022-10-05T09:28:55.789Z,96837.16
2022-10-05T09:31:40.997Z,96826.25
2022-10-05T09:34:26.079Z,96826.41
2022-10-05T09:37:29.674Z,96835.28
2022-10-05T09:40:30.155Z,96831.63
2022-10-05T09:43:20.867Z,96834.63
2022-10-05T09:46:02.845Z,96839.47
2022-10-05T09:48:41.674Z,96839.00
2022-10-05T09:51:27.084Z,96841.06
2022-10-05T09:54:33.697Z,96838.88
2022-10-05T09:57:15.219Z,96839.31
2022-10-05T10:00:03.264Z,96830.09
2022-10-05T10:02:52.447Z,96824.38
2022-10-05T10:05:51.342Z,96827.13
2022-10-05T10:08:25.319Z,96816.81
2022-10-05T10:10:56.798Z,96819.72
2022-10-05T10:13:30.032Z,96819.72
2022-10-05T10:16:02.516Z,96808.53
2022-10-05T10:18:50.600Z,96811.16
2022-10-05T10:21:23.262Z,96811.31
2022-10-05T10:24:14.832Z,96814.22
2022-10-05T10:27:02.866Z,96815.38
2022-10-05T10:30:03.737Z,96820.00
2022-10-05T10:32:42.479Z,96814.50
2022-10-05T10:35:44.895Z,96809.91
2022-10-05T10:38:40.091Z,96804.63
2022-10-05T10:41:31.480Z,96809.38
2022-10-05T10:44:22.721Z,96803.69
2022-10-05T10:47:28.188Z,96809.72
2022-10-05T10:50:05.084Z,96812.22
2022-10-05T10:52:40.699Z,96812.94
2022-10-05T10:55:35.457Z,96811.25
2022-10-05T10:58:23.098Z,96815.56
2022-10-05T11:01:24.475Z,96811.28
2022-10-05T11:04:21.992Z,96806.47
2022-10-05T11:07:26.167Z,96795.66
2022-10-05T11:10:20.106Z,96799.84
2022-10-05T11:12:58.663Z,96800.16
2022-10-05T11:16:02.169Z,96798.50
2022-10-05T11:18:47.212Z,96803.53
2022-10-05T11:21:55.419Z,96793.06
2022-10-05T11:24:38.731Z,96793.47
2022-10-05T11:27:16.337Z,96787.16
2022-10-05T11:30:04.303Z,96788.00
2022-10-05T11:33:03.392Z,96792.28
2022-10-05T11:35:34.246Z,96788.41
2022-10-05T11:38:06.511Z,96786.53
2022-10-05T11:40:47.746Z,96783.13
2022-10-05T11:43:32.806Z,96773.03
2022-10-05T11:46:14.996Z,96779.84
2022-10-05T11:49:01.927Z,96772.84
2022-10-05T11:51:44.175Z,96770.81
2022-10-05T11:57:34.992Z,96767.34
2022-10-05T12:00:10.979Z,96769.25
2022-10-05T12:03:14.333Z,96771.28
2022-10-05T12:06:05.871Z,96767.53
2022-10-05T12:08:53.722Z,96775.91
2022-10-05T12:11:25.935Z,96767.41
2022-10-05T12:13:58.606Z,96770.34
2022-10-05T12:16:34.310Z,96760.19
2022-10-05T12:19:18.622Z,96758.00
2022-10-05T12:21:52.240Z,96762.94
2022-10-05T12:24:30.455Z,96754.72
2022-10-05T12:27:12.057Z,96754.81
2022-10-05T12:29:49.792Z,96748.59
2022-10-05T12:32:22.819Z,96744.75
2022-10-05T12:35:30.013Z,96751.59
2022-10-05T12:38:15.692Z,96747.44
2022-10-05T12:40:52.894Z,96741.34
2022-10-05T12:43:42.669Z,96740.16
2022-10-05T12:46:17.869Z,96743.44
2022-10-05T12:48:59.754Z,96737.44
2022-10-05T12:51:52.147Z,96735.00
2022-10-05T12:54:49.573Z,96728.34
2022-10-05T12:57:18.960Z,96735.53
2022-10-05T13:00:02.359Z,96730.75
2022-10-05T13:03:01.240Z,96724.16
2022-10-05T13:05:35.887Z,96725.47
2022-10-05T13:08:14.482Z,96727.59
2022-10-05T13:11:14.777Z,96727.25
2022-10-05T13:14:16.566Z,96726.19
2022-10-05T13:16:54.726Z,96731.03
2022-10-05T13:19:24.723Z,96726.34
2022-10-05T13:22:14.634Z,96730.31
2022-10-05T13:25:07.312Z,96728.34
2022-10-05T13:28:00.048Z,96727.22
2022-10-05T13:30:27.299Z,96722.31
2022-10-05T13:33:05.109Z,96725.47
2022-10-05T13:36:04.998Z,96724.50
2022-10-05T13:38:58.582Z,96722.13
2022-10-05T13:41:34.392Z,96710.28
2022-10-05T13:44:28.937Z,96718.41
2022-10-05T13:47:21.005Z,96719.03
2022-10-05T13:50:03.534Z,96708.22
2022-10-05T13:52:51.250Z,96708.41
2022-10-05T13:55:33.114Z,96709.66
2022-10-05T13:58:08.665Z,96712.69
2022-10-05T14:00:53.143Z,96707.25
2022-10-05T14:03:40.039Z,96708.59
2022-10-05T14:06:14.575Z,96705.94
2022-10-05T14:08:51.820Z,96703.91
2022-10-05T14:11:26.604Z,96708.84
2022-10-05T14:14:10.490Z,96699.25
2022-10-05T14:16:57.618Z,96700.97
2022-10-05T14:19:24.312Z,96709.16
2022-10-05T14:22:01.576Z,96698.94
2022-10-05T14:24:46.127Z,96706.28
2022-10-05T14:27:27.857Z,96697.34
2022-10-05T14:29:56.476Z,96697.75
2022-10-05T14:32:25.163Z,96696.56
2022-10-05T14:34:57.728Z,96695.56
2022-10-05T14:37:31.204Z,96696.19
2022-10-05T14:40:21.271Z,96694.00
2022-10-05T14:42:48.370Z,96703.00
2022-10-05T14:45:21.639Z,96697.63
2022-10-05T14:47:52.641Z,96697.13
2022-10-05T14:50:26.215Z,96696.34
2022-10-05T14:53:11.145Z,96687.72
2022-10-05T14:55:47.003Z,96692.47
2022-10-05T14:58:33.163Z,96694.16
2022-10-05T15:01:10.185Z,96688.31
2022-10-05T15:04:14.648Z,96693.38
2022-10-05T15:07:04.446Z,96691.63
2022-10-05T15:09:55.844Z,96692.78
2022-10-05T15:12:32.003Z,96690.09
2022-10-05T15:15:39.805Z,96687.81
2022-10-05T15:18:16.798Z,96689.56
2022-10-05T15:20:46.002Z,96691.13
2022-10-05T15:23:24.940Z,96691.09
2022-10-05T15:26:07.831Z,96695.69
2022-10-05T15:28:48.416Z,96692.03
2022-10-05T15:31:46.714Z,96691.50
2022-10-05T15:34:36.196Z,96690.19
2022-10-05T15:37:21.135Z,96693.56
2022-10-05T15:39:59.208Z,96699.00
2022-10-05T15:42:38.370Z,96705.19
2022-10-05T15:45:30.084Z,96704.53
2022-10-05T15:48:03.060Z,96703.50
2022-10-05T15:50:32.466Z,96707.94
2022-10-05T15:53:14.561Z,96707.72
2022-10-05T15:55:59.879Z,96706.25
2022-10-05T15:59:00.033Z,96706.41
2022-10-05T16:01:43.578Z,96709.59
2022-10-05T16:04:51.987Z,96709.16
2022-10-05T16:07:47.737Z,96706.13
2022-10-05T16:10:21.612Z,96709.88
2022-10-05T16:13:19.153Z,96711.47
2022-10-05T16:16:08.065Z,96716.81
2022-10-05T16:19:12.604Z,96721.94
2022-10-05T16:22:06.754Z,96718.47
2022-10-05T16:25:08.939Z,96724.31
2022-10-05T16:28:21.820Z,96720.00
2022-10-05T16:30:58.755Z,96726.22
2022-10-05T16:33:56.386Z,96728.19
2022-10-05T16:36:41.040Z,96734.91
2022-10-05T16:39:25.648Z,96740.06
2022-10-05T16:42:05.479Z,96730.38
2022-10-05T16:45:19.965Z,96731.63
2022-10-05T16:48:13.487Z,96736.94
2022-10-05T16:50:43.171Z,96741.94
2022-10-05T16:53:43.905Z,96747.59
2022-10-05T16:56:18.018Z,96745.38
2022-10-05T16:59:32.135Z,96752.59
2022-10-05T17:02:23.614Z,96745.16
2022-10-05T17:05:20.101Z,96754.16
2022-10-05T17:07:58.760Z,96752.13
2022-10-05T17:10:35.916Z,96759.44
2022-10-05T17:13:16.289Z,96747.13
2022-10-05T17:16:03.445Z,96764.09
2022-10-05T17:18:39.239Z,96768.69
2022-10-05T17:21:11.535Z,96765.06
2022-10-05T17:23:55.165Z,96760.53
2022-10-05T17:27:02.505Z,96762.59
2022-10-05T17:29:51.412Z,96767.81
2022-10-05T17:32:17.928Z,96770.81
2022-10-05T17:35:00.544Z,96771.50
2022-10-05T17:37:27.079Z,96768.16
2022-10-05T17:39:57.811Z,96776.91
2022-10-05T17:42:30.167Z,96779.41
2022-10-05T17:45:12.159Z,96779.41
2022-10-05T17:48:34.387Z,96780.09
2022-10-05T17:51:19.467Z,96775.38
2022-10-05T17:54:05.763Z,96774.56
2022-10-05T17:56:55.619Z,96775.19
2022-10-05T17:59:55.638Z,96775.50
2022-10-05T18:02:38.515Z,96778.09
2022-10-05T18:05:05.122Z,96773.13
2022-10-05T18:07:33.962Z,96782.34
2022-10-05T18:10:09.670Z,96784.94
2022-10-05T18:12:36.200Z,96779.63
2022-10-05T18:15:22.294Z,96791.81
2022-10-05T18:17:58.147Z,96783.06
2022-10-05T18:20:25.551Z,96785.63
2022-10-05T18:23:06.128Z,96793.13
2022-10-05T18:25:52.983Z,96785.56
2022-10-05T18:29:13.958Z,96793.81
2022-10-05T18:32:01.278Z,96794.88
2022-10-05T18:34:30.582Z,96796.69
2022-10-05T18:37:12.297Z,96806.47
2022-10-05T18:39:58.283Z,96797.06
2022-10-05T18:43:06.367Z,96803.78
2022-10-05T18:45:51.471Z,96805.34
2022-10-05T18:48:39.867Z,96805.66
2022-10-05T18:51:41.379Z,96804.66
2022-10-05T18:54:25.147Z,96800.56
2022-10-05T18:56:53.202Z,96805.41
2022-10-05T18:59:49.498Z,96806.53
2022-10-05T19:02:25.024Z,96809.84
2022-10-05T19:05:47.025Z,96812.56
2022-10-05T19:08:34.326Z,96812.41
2022-10-05T19:11:25.852Z,96815.75
2022-10-05T19:14:24.483Z,96818.63
2022-10-05T19:17:09.644Z,96822.28
2022-10-05T19:19:57.742Z,96836.13
2022-10-05T19:22:51.447Z,96837.09
2022-10-05T19:25:20.993Z,96833.63
2022-10-05T19:27:59.719Z,96844.44
2022-10-05T19:30:35.276Z,96846.63
2022-10-05T19:33:26.704Z,96838.63
2022-10-05T19:36:11.836Z,96843.75
2022-10-05T19:38:57.823Z,96847.41
2022-10-05T19:41:55.306Z,96842.53
2022-10-05T19:44:46.614Z,96849.16
2022-10-05T19:47:31.681Z,96861.44
2022-10-05T19:50:01.987Z,96862.56
2022-10-05T19:52:43.405Z,96865.06
2022-10-05T19:55:26.440Z,96865.03
2022-10-05T19:57:55.970Z,96866.13
2022-10-05T20:00:31.375Z,96875.09
2022-10-05T20:03:12.155Z,96872.38
2022-10-05T20:05:40.058Z,96874.72
2022-10-05T20:08:07.599Z,96883.34
2022-10-05T20:10:34.393Z,96881.13
2022-10-05T20:13:04.051Z,96881.13
2022-10-05T20:15:54.933Z,96893.31
2022-10-05T20:18:55.375Z,96890.47
2022-10-05T20:21:46.378Z,96903.38
2022-10-05T20:24:48.961Z,96906.06
2022-10-05T20:27:42.951Z,96914.72
2022-10-05T20:30:11.963Z,96914.94
2022-10-05T20:32:38.673Z,96911.63
2022-10-05T20:35:07.008Z,96911.78
2022-10-05T20:37:33.774Z,96920.19
2022-10-05T20:40:00.418Z,96916.13
2022-10-05T20:42:26.966Z,96924.44
2022-10-05T20:44:56.907Z,96928.00
2022-10-05T20:47:25.022Z,96931.03
2022-10-05T20:49:53.400Z,96940.28
2022-10-05T20:52:20.729Z,96942.47
2022-10-05T20:54:47.326Z,96942.38
2022-10-05T20:57:14.082Z,96950.66
2022-10-05T20:59:40.796Z,96953.47
2022-10-05T21:02:07.431Z,96949.16
2022-10-05T21:04:41.643Z,96955.47
2022-10-05T21:07:08.702Z,96958.28
2022-10-05T21:09:38.336Z,96949.78
2022-10-05T21:12:05.280Z,96956.28
2022-10-05T21:14:34.377Z,96969.09
2022-10-05T21:17:02.035Z,96973.28
2022-10-05T21:19:29.556Z,96962.69
2022-10-05T21:21:59.530Z,96973.06
2022-10-05T21:24:26.346Z,96968.19
2022-10-05T21:26:56.838Z,96977.78
2022-10-05T21:29:23.438Z,96975.09
2022-10-05T21:31:50.130Z,96977.69
2022-10-05T21:34:16.856Z,96983.63
2022-10-05T21:36:43.415Z,96985.31
2022-10-05T21:39:10.044Z,96978.34
2022-10-05T21:41:36.666Z,96978.94
2022-10-05T21:44:04.143Z,96983.03
2022-10-05T21:46:31.635Z,96988.75
2022-10-05T21:48:58.254Z,96987.69
2022-10-05T21:51:26.318Z,96989.19
2022-10-05T21:53:59.451Z,96988.03
2022-10-05T21:56:31.234Z,96984.81
2022-10-05T21:58:59.281Z,96984.97
2022-10-05T22:01:25.993Z,96987.03
2022-10-05T22:03:52.653Z,96984.97
2022-10-05T22:06:19.272Z,96992.75
2022-10-05T22:08:46.097Z,96990.56
2022-10-05T22:11:17.946Z,96990.19
2022-10-05T22:13:47.814Z,96992.88
2022-10-05T22:16:16.533Z,96994.50
2022-10-05T22:18:43.585Z,96997.84
2022-10-05T22:21:12.404Z,96998.31
2022-10-05T22:23:40.810Z,96997.47
2022-10-05T22:26:09.290Z,97002.19
2022-10-05T22:28:37.221Z,96994.75
2022-10-05T22:31:06.550Z,96992.19
2022-10-05T22:33:33.329Z,96998.47
2022-10-05T22:36:00.601Z,97004.31
2022-10-05T22:38:28.068Z,96999.59
2022-10-05T22:40:54.780Z,97003.38
2022-10-05T22:43:21.414Z,97010.09
2022-10-05T22:45:48.127Z,97024.03
2022-10-05T22:48:15.771Z,97017.84
2022-10-05T22:50:46.519Z,97018.06
2022-10-05T22:53:13.947Z,97015.97
2022-10-05T22:55:40.865Z,97016.97
2022-10-05T22:58:07.461Z,97022.34
2022-10-05T23:00:56.357Z,97018.06
2022-10-05T23:03:20.738Z,97026.16
2022-10-05T23:05:47.322Z,97027.84
2022-10-05T23:08:13.884Z,97036.78
2022-10-05T23:10:40.476Z,97034.81
2022-10-05T23:13:08.764Z,97037.78
2022-10-05T23:15:35.912Z,97037.38
2022-10-05T23:18:02.462Z,97033.72
2022-10-05T23:20:29.175Z,97037.47
2022-10-05T23:22:55.730Z,97047.28
2022-10-05T23:25:22.351Z,97042.88
2022-10-05T23:27:49.235Z,97052.56
2022-10-05T23:30:15.846Z,97047.94
2022-10-05T23:32:44.323Z,97057.44
2022-10-05T23:35:12.826Z,97056.53
2022-10-05T23:37:44.286Z,97058.41
2022-10-05T23:40:14.224Z,97062.09
2022-10-05T23:42:41.584Z,97068.94
2022-10-05T23:45:10.337Z,97072.03
2022-10-05T23:47:37.960Z,97080.19
2022-10-05T23:50:07.056Z,97082.47
2022-10-05T23:52:34.665Z,97086.81
2022-10-05T23:55:05.475Z,97095.28
2022-10-05T23:57:32.338Z,97083.06
2022-10-05T23:59:58.998Z,97090.38
